sensor_id;sensor_type;location;lat;lon;timestamp;temperature;humidity
52321;DHT22;38261;54.090;13.382;2023-07-02T00:01:01;17.50;99.90
52321;DHT22;38261;54.090;13.382;2023-07-02T00:02:24;17.50;99.90
52321;DHT22;38261;54.090;13.382;2023-07-02T00:03:46;17.50;99.90
52321;DHT22;38261;54.090;13.382;2023-07-02T00:05:08;17.50;99.90
52321;DHT22;38261;54.090;13.382;2023-07-02T00:06:30;17.60;99.90
52321;DHT22;38261;54.090;13.382;2023-07-02T00:07:54;17.60;99.90
52321;DHT22;38261;54.090;13.382;2023-07-02T00:09:16;17.60;99.90
52321;DHT22;38261;54.090;13.382;2023-07-02T00:10:38;17.60;99.90
52321;DHT22;38261;54.090;13.382;2023-07-02T00:12:01;17.60;99.90
52321;DHT22;38261;54.090;13.382;2023-07-02T00:13:23;17.60;99.90
52321;DHT22;38261;54.090;13.382;2023-07-02T00:14:45;17.60;99.90
52321;DHT22;38261;54.090;13.382;2023-07-02T00:16:07;17.60;99.90
52321;DHT22;38261;54.090;13.382;2023-07-02T00:17:29;17.60;99.90
52321;DHT22;38261;54.090;13.382;2023-07-02T00:18:51;17.60;99.90
52321;DHT22;38261;54.090;13.382;2023-07-02T00:20:14;17.60;99.90
52321;DHT22;38261;54.090;13.382;2023-07-02T00:21:38;17.50;99.90
52321;DHT22;38261;54.090;13.382;2023-07-02T00:23:02;17.50;99.90
52321;DHT22;38261;54.090;13.382;2023-07-02T00:24:24;17.50;99.90
52321;DHT22;38261;54.090;13.382;2023-07-02T00:25:46;17.50;99.90
52321;DHT22;38261;54.090;13.382;2023-07-02T00:27:08;17.40;99.90
52321;DHT22;38261;54.090;13.382;2023-07-02T00:28:30;17.40;99.90
52321;DHT22;38261;54.090;13.382;2023-07-02T00:29:52;17.40;99.90
52321;DHT22;38261;54.090;13.382;2023-07-02T00:31:14;17.30;99.90
52321;DHT22;38261;54.090;13.382;2023-07-02T00:32:36;17.20;99.90
52321;DHT22;38261;54.090;13.382;2023-07-02T00:33:59;17.20;99.90
52321;DHT22;38261;54.090;13.382;2023-07-02T00:35:22;17.20;99.90
52321;DHT22;38261;54.090;13.382;2023-07-02T00:36:45;17.10;99.90
52321;DHT22;38261;54.090;13.382;2023-07-02T00:38:07;17.00;99.90
52321;DHT22;38261;54.090;13.382;2023-07-02T00:39:29;17.00;99.90
52321;DHT22;38261;54.090;13.382;2023-07-02T00:40:52;17.00;99.90
52321;DHT22;38261;54.090;13.382;2023-07-02T00:42:14;17.00;99.90
52321;DHT22;38261;54.090;13.382;2023-07-02T00:43:36;16.90;99.90
52321;DHT22;38261;54.090;13.382;2023-07-02T00:45:05;17.00;99.90
52321;DHT22;38261;54.090;13.382;2023-07-02T00:46:28;16.90;99.90
52321;DHT22;38261;54.090;13.382;2023-07-02T00:47:54;16.90;99.90
52321;DHT22;38261;54.090;13.382;2023-07-02T00:49:16;16.90;99.90
52321;DHT22;38261;54.090;13.382;2023-07-02T00:50:39;16.80;99.90
52321;DHT22;38261;54.090;13.382;2023-07-02T00:52:02;16.80;99.90
52321;DHT22;38261;54.090;13.382;2023-07-02T00:53:25;16.80;99.90
52321;DHT22;38261;54.090;13.382;2023-07-02T00:54:47;16.70;99.90
52321;DHT22;38261;54.090;13.382;2023-07-02T00:56:09;16.70;99.90
52321;DHT22;38261;54.090;13.382;2023-07-02T00:57:31;16.80;99.90
52321;DHT22;38261;54.090;13.382;2023-07-02T00:58:54;16.80;99.90
52321;DHT22;38261;54.090;13.382;2023-07-02T01:00:20;16.80;99.90
52321;DHT22;38261;54.090;13.382;2023-07-02T01:01:43;16.70;99.90
52321;DHT22;38261;54.090;13.382;2023-07-02T01:03:11;16.80;99.90
52321;DHT22;38261;54.090;13.382;2023-07-02T01:04:33;16.80;99.90
52321;DHT22;38261;54.090;13.382;2023-07-02T01:05:55;16.80;99.90
52321;DHT22;38261;54.090;13.382;2023-07-02T01:07:18;16.80;99.90
52321;DHT22;38261;54.090;13.382;2023-07-02T01:08:40;16.80;99.90
52321;DHT22;38261;54.090;13.382;2023-07-02T01:10:02;16.70;99.90
52321;DHT22;38261;54.090;13.382;2023-07-02T01:11:43;16.70;99.90
52321;DHT22;38261;54.090;13.382;2023-07-02T01:13:10;16.70;99.90
52321;DHT22;38261;54.090;13.382;2023-07-02T01:14:37;16.70;99.90
52321;DHT22;38261;54.090;13.382;2023-07-02T01:16:00;16.70;99.90
52321;DHT22;38261;54.090;13.382;2023-07-02T01:17:23;16.70;99.90
52321;DHT22;38261;54.090;13.382;2023-07-02T01:18:46;16.60;99.90
52321;DHT22;38261;54.090;13.382;2023-07-02T01:20:09;16.60;99.90
52321;DHT22;38261;54.090;13.382;2023-07-02T01:21:32;16.60;99.90
52321;DHT22;38261;54.090;13.382;2023-07-02T01:22:55;16.60;99.90
52321;DHT22;38261;54.090;13.382;2023-07-02T01:24:17;16.60;99.90
52321;DHT22;38261;54.090;13.382;2023-07-02T01:25:39;16.60;99.90
52321;DHT22;38261;54.090;13.382;2023-07-02T01:27:02;16.60;99.90
52321;DHT22;38261;54.090;13.382;2023-07-02T01:28:25;16.60;99.90
52321;DHT22;38261;54.090;13.382;2023-07-02T01:29:51;16.60;99.90
52321;DHT22;38261;54.090;13.382;2023-07-02T01:31:14;16.50;99.90
52321;DHT22;38261;54.090;13.382;2023-07-02T01:32:37;16.50;99.90
52321;DHT22;38261;54.090;13.382;2023-07-02T01:33:59;16.50;99.90
52321;DHT22;38261;54.090;13.382;2023-07-02T01:35:22;16.50;99.90
52321;DHT22;38261;54.090;13.382;2023-07-02T01:36:44;16.50;99.90
52321;DHT22;38261;54.090;13.382;2023-07-02T01:38:06;16.50;99.90
52321;DHT22;38261;54.090;13.382;2023-07-02T01:39:28;16.50;99.90
52321;DHT22;38261;54.090;13.382;2023-07-02T01:40:50;16.40;99.90
52321;DHT22;38261;54.090;13.382;2023-07-02T01:42:13;16.40;99.90
52321;DHT22;38261;54.090;13.382;2023-07-02T01:43:39;16.40;99.90
52321;DHT22;38261;54.090;13.382;2023-07-02T01:45:01;16.40;99.90
52321;DHT22;38261;54.090;13.382;2023-07-02T01:46:23;16.40;99.90
52321;DHT22;38261;54.090;13.382;2023-07-02T01:47:45;16.40;99.90
52321;DHT22;38261;54.090;13.382;2023-07-02T01:49:08;16.40;99.90
52321;DHT22;38261;54.090;13.382;2023-07-02T01:50:30;16.40;99.90
52321;DHT22;38261;54.090;13.382;2023-07-02T01:51:53;16.40;99.90
52321;DHT22;38261;54.090;13.382;2023-07-02T01:53:16;16.30;99.90
52321;DHT22;38261;54.090;13.382;2023-07-02T01:54:38;16.30;99.90
52321;DHT22;38261;54.090;13.382;2023-07-02T01:56:00;16.30;99.90
52321;DHT22;38261;54.090;13.382;2023-07-02T01:57:22;16.30;99.90
52321;DHT22;38261;54.090;13.382;2023-07-02T01:58:44;16.30;99.90
52321;DHT22;38261;54.090;13.382;2023-07-02T02:00:07;16.30;99.90
52321;DHT22;38261;54.090;13.382;2023-07-02T02:01:30;16.20;99.90
52321;DHT22;38261;54.090;13.382;2023-07-02T02:02:54;16.20;99.90
52321;DHT22;38261;54.090;13.382;2023-07-02T02:04:18;16.20;99.90
52321;DHT22;38261;54.090;13.382;2023-07-02T02:05:40;16.20;99.90
52321;DHT22;38261;54.090;13.382;2023-07-02T02:07:02;16.20;99.90
52321;DHT22;38261;54.090;13.382;2023-07-02T02:08:24;16.20;99.90
52321;DHT22;38261;54.090;13.382;2023-07-02T02:09:46;16.20;99.90
52321;DHT22;38261;54.090;13.382;2023-07-02T02:11:08;16.20;99.90
52321;DHT22;38261;54.090;13.382;2023-07-02T02:12:31;16.10;99.90
52321;DHT22;38261;54.090;13.382;2023-07-02T02:13:53;16.10;99.90
52321;DHT22;38261;54.090;13.382;2023-07-02T02:15:15;16.10;99.90
52321;DHT22;38261;54.090;13.382;2023-07-02T02:16:38;16.10;99.90
52321;DHT22;38261;54.090;13.382;2023-07-02T02:18:00;16.10;99.90
52321;DHT22;38261;54.090;13.382;2023-07-02T02:19:22;16.00;99.90
52321;DHT22;38261;54.090;13.382;2023-07-02T02:20:44;16.00;99.90
52321;DHT22;38261;54.090;13.382;2023-07-02T02:22:07;16.00;99.90
52321;DHT22;38261;54.090;13.382;2023-07-02T02:23:29;16.00;99.90
52321;DHT22;38261;54.090;13.382;2023-07-02T02:24:52;16.00;99.90
52321;DHT22;38261;54.090;13.382;2023-07-02T02:26:14;15.90;99.90
52321;DHT22;38261;54.090;13.382;2023-07-02T02:27:37;15.90;99.90
52321;DHT22;38261;54.090;13.382;2023-07-02T02:28:59;15.90;99.90
52321;DHT22;38261;54.090;13.382;2023-07-02T02:30:21;15.80;99.90
52321;DHT22;38261;54.090;13.382;2023-07-02T02:31:43;15.80;99.90
52321;DHT22;38261;54.090;13.382;2023-07-02T02:33:06;15.70;99.90
52321;DHT22;38261;54.090;13.382;2023-07-02T02:34:28;15.70;99.90
52321;DHT22;38261;54.090;13.382;2023-07-02T02:35:51;15.70;99.90
52321;DHT22;38261;54.090;13.382;2023-07-02T02:37:13;15.70;99.90
52321;DHT22;38261;54.090;13.382;2023-07-02T02:38:35;15.60;99.90
52321;DHT22;38261;54.090;13.382;2023-07-02T02:39:59;15.60;99.90
52321;DHT22;38261;54.090;13.382;2023-07-02T02:41:21;15.60;99.90
52321;DHT22;38261;54.090;13.382;2023-07-02T02:42:43;15.60;99.90
52321;DHT22;38261;54.090;13.382;2023-07-02T02:44:05;15.60;99.90
52321;DHT22;38261;54.090;13.382;2023-07-02T02:45:28;15.60;99.90
52321;DHT22;38261;54.090;13.382;2023-07-02T02:46:51;15.60;99.90
52321;DHT22;38261;54.090;13.382;2023-07-02T02:48:13;15.60;99.90
52321;DHT22;38261;54.090;13.382;2023-07-02T02:49:37;15.60;99.90
52321;DHT22;38261;54.090;13.382;2023-07-02T02:51:00;15.60;99.90
52321;DHT22;38261;54.090;13.382;2023-07-02T02:52:22;15.60;99.90
52321;DHT22;38261;54.090;13.382;2023-07-02T02:53:44;15.60;99.90
52321;DHT22;38261;54.090;13.382;2023-07-02T02:55:08;15.50;99.90
52321;DHT22;38261;54.090;13.382;2023-07-02T02:56:31;15.50;99.90
52321;DHT22;38261;54.090;13.382;2023-07-02T02:57:53;15.50;99.90
52321;DHT22;38261;54.090;13.382;2023-07-02T02:59:15;15.50;99.90
52321;DHT22;38261;54.090;13.382;2023-07-02T03:00:37;15.50;99.90
52321;DHT22;38261;54.090;13.382;2023-07-02T03:02:00;15.50;99.90
52321;DHT22;38261;54.090;13.382;2023-07-02T03:03:22;15.50;99.90
52321;DHT22;38261;54.090;13.382;2023-07-02T03:04:46;15.50;99.90
52321;DHT22;38261;54.090;13.382;2023-07-02T03:06:14;15.60;99.90
52321;DHT22;38261;54.090;13.382;2023-07-02T03:07:37;15.60;99.90
52321;DHT22;38261;54.090;13.382;2023-07-02T03:08:59;15.60;99.90
52321;DHT22;38261;54.090;13.382;2023-07-02T03:10:23;15.70;99.90
52321;DHT22;38261;54.090;13.382;2023-07-02T03:11:46;15.70;99.90
52321;DHT22;38261;54.090;13.382;2023-07-02T03:13:09;15.70;99.90
52321;DHT22;38261;54.090;13.382;2023-07-02T03:14:31;15.80;99.90
52321;DHT22;38261;54.090;13.382;2023-07-02T03:15:53;15.80;99.90
52321;DHT22;38261;54.090;13.382;2023-07-02T03:17:15;15.90;99.90
52321;DHT22;38261;54.090;13.382;2023-07-02T03:18:37;15.90;99.90
52321;DHT22;38261;54.090;13.382;2023-07-02T03:20:00;16.00;99.90
52321;DHT22;38261;54.090;13.382;2023-07-02T03:21:23;16.10;99.90
52321;DHT22;38261;54.090;13.382;2023-07-02T03:22:45;16.20;99.90
52321;DHT22;38261;54.090;13.382;2023-07-02T03:24:07;16.20;99.90
52321;DHT22;38261;54.090;13.382;2023-07-02T03:25:29;16.20;99.90
52321;DHT22;38261;54.090;13.382;2023-07-02T03:26:51;16.20;99.90
52321;DHT22;38261;54.090;13.382;2023-07-02T03:28:13;16.30;99.90
52321;DHT22;38261;54.090;13.382;2023-07-02T03:29:36;16.30;99.90
52321;DHT22;38261;54.090;13.382;2023-07-02T03:31:00;16.30;99.90
52321;DHT22;38261;54.090;13.382;2023-07-02T03:32:22;16.40;99.90
52321;DHT22;38261;54.090;13.382;2023-07-02T03:33:44;16.50;99.90
52321;DHT22;38261;54.090;13.382;2023-07-02T03:35:06;16.60;99.90
52321;DHT22;38261;54.090;13.382;2023-07-02T03:36:29;16.70;99.90
52321;DHT22;38261;54.090;13.382;2023-07-02T03:37:51;16.80;99.90
52321;DHT22;38261;54.090;13.382;2023-07-02T03:39:13;16.90;99.90
52321;DHT22;38261;54.090;13.382;2023-07-02T03:40:35;17.00;99.90
52321;DHT22;38261;54.090;13.382;2023-07-02T03:41:57;17.20;99.90
52321;DHT22;38261;54.090;13.382;2023-07-02T03:43:19;17.20;99.90
52321;DHT22;38261;54.090;13.382;2023-07-02T03:44:41;17.30;99.90
52321;DHT22;38261;54.090;13.382;2023-07-02T03:46:03;17.50;99.90
52321;DHT22;38261;54.090;13.382;2023-07-02T03:47:26;17.50;99.90
52321;DHT22;38261;54.090;13.382;2023-07-02T03:48:48;17.50;99.90
52321;DHT22;38261;54.090;13.382;2023-07-02T03:50:10;17.50;99.90
52321;DHT22;38261;54.090;13.382;2023-07-02T03:51:32;17.60;99.90
52321;DHT22;38261;54.090;13.382;2023-07-02T03:52:54;17.50;99.90
52321;DHT22;38261;54.090;13.382;2023-07-02T03:54:16;17.50;99.90
52321;DHT22;38261;54.090;13.382;2023-07-02T03:55:39;17.50;99.90
52321;DHT22;38261;54.090;13.382;2023-07-02T03:57:02;17.70;99.90
52321;DHT22;38261;54.090;13.382;2023-07-02T03:58:24;17.90;99.90
52321;DHT22;38261;54.090;13.382;2023-07-02T03:59:46;18.20;99.90
52321;DHT22;38261;54.090;13.382;2023-07-02T04:01:08;18.40;99.90
52321;DHT22;38261;54.090;13.382;2023-07-02T04:02:30;18.90;99.90
52321;DHT22;38261;54.090;13.382;2023-07-02T04:03:53;19.50;99.90
52321;DHT22;38261;54.090;13.382;2023-07-02T04:05:16;19.80;99.90
52321;DHT22;38261;54.090;13.382;2023-07-02T04:06:38;20.20;99.90
52321;DHT22;38261;54.090;13.382;2023-07-02T04:08:00;20.10;99.90
52321;DHT22;38261;54.090;13.382;2023-07-02T04:09:22;19.90;99.90
52321;DHT22;38261;54.090;13.382;2023-07-02T04:10:44;20.10;99.90
52321;DHT22;38261;54.090;13.382;2023-07-02T04:12:07;20.50;99.90
52321;DHT22;38261;54.090;13.382;2023-07-02T04:13:30;20.70;99.90
52321;DHT22;38261;54.090;13.382;2023-07-02T04:14:52;20.80;99.90
52321;DHT22;38261;54.090;13.382;2023-07-02T04:16:14;20.40;99.90
52321;DHT22;38261;54.090;13.382;2023-07-02T04:17:36;20.10;99.90
52321;DHT22;38261;54.090;13.382;2023-07-02T04:18:58;19.70;99.90
52321;DHT22;38261;54.090;13.382;2023-07-02T04:20:20;19.30;99.90
52321;DHT22;38261;54.090;13.382;2023-07-02T04:21:43;19.00;99.90
52321;DHT22;38261;54.090;13.382;2023-07-02T04:23:06;18.70;99.90
52321;DHT22;38261;54.090;13.382;2023-07-02T04:24:28;18.50;99.90
52321;DHT22;38261;54.090;13.382;2023-07-02T04:25:51;18.40;99.90
52321;DHT22;38261;54.090;13.382;2023-07-02T04:27:33;18.30;99.90
52321;DHT22;38261;54.090;13.382;2023-07-02T04:29:12;18.10;99.90
52321;DHT22;38261;54.090;13.382;2023-07-02T04:30:34;18.00;99.90
52321;DHT22;38261;54.090;13.382;2023-07-02T04:31:57;17.90;99.90
52321;DHT22;38261;54.090;13.382;2023-07-02T04:33:19;17.80;99.90
52321;DHT22;38261;54.090;13.382;2023-07-02T04:34:41;17.90;99.90
52321;DHT22;38261;54.090;13.382;2023-07-02T04:36:03;17.80;99.90
52321;DHT22;38261;54.090;13.382;2023-07-02T04:37:26;17.90;99.90
52321;DHT22;38261;54.090;13.382;2023-07-02T04:38:50;17.90;99.90
52321;DHT22;38261;54.090;13.382;2023-07-02T04:40:12;17.90;99.90
52321;DHT22;38261;54.090;13.382;2023-07-02T04:41:35;17.90;99.90
52321;DHT22;38261;54.090;13.382;2023-07-02T04:42:57;17.90;99.90
52321;DHT22;38261;54.090;13.382;2023-07-02T04:44:22;17.80;99.90
52321;DHT22;38261;54.090;13.382;2023-07-02T04:45:50;17.90;99.90
52321;DHT22;38261;54.090;13.382;2023-07-02T04:47:13;18.40;99.90
52321;DHT22;38261;54.090;13.382;2023-07-02T04:48:35;19.50;99.90
52321;DHT22;38261;54.090;13.382;2023-07-02T04:49:58;20.80;99.90
52321;DHT22;38261;54.090;13.382;2023-07-02T04:51:20;22.20;99.90
52321;DHT22;38261;54.090;13.382;2023-07-02T04:52:44;22.80;99.90
52321;DHT22;38261;54.090;13.382;2023-07-02T04:54:06;23.40;99.90
52321;DHT22;38261;54.090;13.382;2023-07-02T04:55:28;23.90;99.90
52321;DHT22;38261;54.090;13.382;2023-07-02T04:56:50;23.80;99.90
52321;DHT22;38261;54.090;13.382;2023-07-02T04:58:12;23.60;99.90
52321;DHT22;38261;54.090;13.382;2023-07-02T04:59:35;23.30;99.90
52321;DHT22;38261;54.090;13.382;2023-07-02T05:00:57;22.90;99.90
52321;DHT22;38261;54.090;13.382;2023-07-02T05:02:19;22.50;99.90
52321;DHT22;38261;54.090;13.382;2023-07-02T05:03:41;22.00;99.90
52321;DHT22;38261;54.090;13.382;2023-07-02T05:05:03;21.40;99.90
52321;DHT22;38261;54.090;13.382;2023-07-02T05:06:26;21.10;99.90
52321;DHT22;38261;54.090;13.382;2023-07-02T05:07:48;20.70;99.90
52321;DHT22;38261;54.090;13.382;2023-07-02T05:09:10;20.50;99.90
52321;DHT22;38261;54.090;13.382;2023-07-02T05:10:32;20.20;99.90
52321;DHT22;38261;54.090;13.382;2023-07-02T05:11:54;20.10;99.90
52321;DHT22;38261;54.090;13.382;2023-07-02T05:13:16;20.00;99.90
52321;DHT22;38261;54.090;13.382;2023-07-02T05:14:39;19.80;99.90
52321;DHT22;38261;54.090;13.382;2023-07-02T05:16:01;19.60;99.90
52321;DHT22;38261;54.090;13.382;2023-07-02T05:17:23;19.40;99.90
52321;DHT22;38261;54.090;13.382;2023-07-02T05:18:45;19.20;99.90
52321;DHT22;38261;54.090;13.382;2023-07-02T05:20:08;19.00;99.90
52321;DHT22;38261;54.090;13.382;2023-07-02T05:21:30;19.10;99.90
52321;DHT22;38261;54.090;13.382;2023-07-02T05:22:52;19.60;99.90
52321;DHT22;38261;54.090;13.382;2023-07-02T05:24:14;20.30;99.90
52321;DHT22;38261;54.090;13.382;2023-07-02T05:25:37;21.00;99.90
52321;DHT22;38261;54.090;13.382;2023-07-02T05:26:59;21.70;99.90
52321;DHT22;38261;54.090;13.382;2023-07-02T05:28:21;22.40;99.90
52321;DHT22;38261;54.090;13.382;2023-07-02T05:29:43;23.10;99.90
52321;DHT22;38261;54.090;13.382;2023-07-02T05:31:06;23.70;99.90
52321;DHT22;38261;54.090;13.382;2023-07-02T05:32:28;23.90;99.90
52321;DHT22;38261;54.090;13.382;2023-07-02T05:33:50;24.00;99.90
52321;DHT22;38261;54.090;13.382;2023-07-02T05:35:12;23.80;99.90
52321;DHT22;38261;54.090;13.382;2023-07-02T05:36:34;23.50;99.90
52321;DHT22;38261;54.090;13.382;2023-07-02T05:37:56;23.00;99.90
52321;DHT22;38261;54.090;13.382;2023-07-02T05:39:19;22.40;99.90
52321;DHT22;38261;54.090;13.382;2023-07-02T05:40:41;21.70;99.90
52321;DHT22;38261;54.090;13.382;2023-07-02T05:42:04;21.20;99.90
52321;DHT22;38261;54.090;13.382;2023-07-02T05:43:26;20.90;99.90
52321;DHT22;38261;54.090;13.382;2023-07-02T05:44:48;21.00;99.90
52321;DHT22;38261;54.090;13.382;2023-07-02T05:46:10;21.30;99.90
52321;DHT22;38261;54.090;13.382;2023-07-02T05:47:34;21.60;99.90
52321;DHT22;38261;54.090;13.382;2023-07-02T05:48:56;22.10;99.90
52321;DHT22;38261;54.090;13.382;2023-07-02T05:50:19;22.60;99.90
52321;DHT22;38261;54.090;13.382;2023-07-02T05:51:41;23.00;99.90
52321;DHT22;38261;54.090;13.382;2023-07-02T05:53:03;23.30;99.90
52321;DHT22;38261;54.090;13.382;2023-07-02T05:54:25;23.40;99.90
52321;DHT22;38261;54.090;13.382;2023-07-02T05:55:47;23.50;99.90
52321;DHT22;38261;54.090;13.382;2023-07-02T05:57:10;23.80;99.90
52321;DHT22;38261;54.090;13.382;2023-07-02T05:58:32;24.10;99.90
52321;DHT22;38261;54.090;13.382;2023-07-02T06:00:09;24.30;99.90
52321;DHT22;38261;54.090;13.382;2023-07-02T06:01:32;24.70;99.90
52321;DHT22;38261;54.090;13.382;2023-07-02T06:02:54;24.90;99.90
52321;DHT22;38261;54.090;13.382;2023-07-02T06:04:16;24.90;99.90
52321;DHT22;38261;54.090;13.382;2023-07-02T06:05:39;24.90;99.90
52321;DHT22;38261;54.090;13.382;2023-07-02T06:07:01;24.90;99.90
52321;DHT22;38261;54.090;13.382;2023-07-02T06:08:23;24.40;99.90
52321;DHT22;38261;54.090;13.382;2023-07-02T06:09:45;23.80;99.90
52321;DHT22;38261;54.090;13.382;2023-07-02T06:11:09;23.40;99.90
52321;DHT22;38261;54.090;13.382;2023-07-02T06:12:31;23.10;99.90
52321;DHT22;38261;54.090;13.382;2023-07-02T06:13:53;22.80;99.90
52321;DHT22;38261;54.090;13.382;2023-07-02T06:15:17;22.50;99.90
52321;DHT22;38261;54.090;13.382;2023-07-02T06:16:40;22.20;99.90
52321;DHT22;38261;54.090;13.382;2023-07-02T06:18:02;22.00;99.90
52321;DHT22;38261;54.090;13.382;2023-07-02T06:19:25;21.90;99.90
52321;DHT22;38261;54.090;13.382;2023-07-02T06:20:47;21.70;99.90
52321;DHT22;38261;54.090;13.382;2023-07-02T06:22:10;21.40;99.90
52321;DHT22;38261;54.090;13.382;2023-07-02T06:23:42;21.30;99.90
52321;DHT22;38261;54.090;13.382;2023-07-02T06:25:04;21.30;99.90
52321;DHT22;38261;54.090;13.382;2023-07-02T06:26:27;21.00;99.90
52321;DHT22;38261;54.090;13.382;2023-07-02T06:27:49;20.90;99.90
52321;DHT22;38261;54.090;13.382;2023-07-02T06:29:11;21.00;99.90
52321;DHT22;38261;54.090;13.382;2023-07-02T06:30:33;21.30;99.90
52321;DHT22;38261;54.090;13.382;2023-07-02T06:31:56;21.60;99.90
52321;DHT22;38261;54.090;13.382;2023-07-02T06:33:18;21.70;99.90
52321;DHT22;38261;54.090;13.382;2023-07-02T06:34:40;21.80;99.90
52321;DHT22;38261;54.090;13.382;2023-07-02T06:36:02;21.80;99.90
52321;DHT22;38261;54.090;13.382;2023-07-02T06:37:24;21.80;99.90
52321;DHT22;38261;54.090;13.382;2023-07-02T06:38:47;21.80;99.90
52321;DHT22;38261;54.090;13.382;2023-07-02T06:40:09;21.70;99.90
52321;DHT22;38261;54.090;13.382;2023-07-02T06:41:31;21.50;99.90
52321;DHT22;38261;54.090;13.382;2023-07-02T06:42:54;21.30;99.90
52321;DHT22;38261;54.090;13.382;2023-07-02T06:44:16;21.00;99.90
52321;DHT22;38261;54.090;13.382;2023-07-02T06:45:38;20.80;99.90
52321;DHT22;38261;54.090;13.382;2023-07-02T06:47:00;20.70;99.90
52321;DHT22;38261;54.090;13.382;2023-07-02T06:48:22;20.70;99.90
52321;DHT22;38261;54.090;13.382;2023-07-02T06:49:44;20.50;99.90
52321;DHT22;38261;54.090;13.382;2023-07-02T06:51:06;20.30;99.90
52321;DHT22;38261;54.090;13.382;2023-07-02T06:52:29;20.30;99.90
52321;DHT22;38261;54.090;13.382;2023-07-02T06:53:52;20.30;99.90
52321;DHT22;38261;54.090;13.382;2023-07-02T06:55:14;20.40;99.90
52321;DHT22;38261;54.090;13.382;2023-07-02T06:56:36;20.40;99.90
52321;DHT22;38261;54.090;13.382;2023-07-02T06:57:58;20.40;99.90
52321;DHT22;38261;54.090;13.382;2023-07-02T06:59:21;20.40;99.90
52321;DHT22;38261;54.090;13.382;2023-07-02T07:00:44;20.40;99.90
52321;DHT22;38261;54.090;13.382;2023-07-02T07:02:06;20.30;99.90
52321;DHT22;38261;54.090;13.382;2023-07-02T07:03:29;20.30;99.90
52321;DHT22;38261;54.090;13.382;2023-07-02T07:04:51;20.40;99.90
52321;DHT22;38261;54.090;13.382;2023-07-02T07:06:13;20.40;99.90
52321;DHT22;38261;54.090;13.382;2023-07-02T07:07:35;20.50;99.90
52321;DHT22;38261;54.090;13.382;2023-07-02T07:08:57;20.80;99.90
52321;DHT22;38261;54.090;13.382;2023-07-02T07:10:20;21.00;99.90
52321;DHT22;38261;54.090;13.382;2023-07-02T07:11:42;21.20;99.90
52321;DHT22;38261;54.090;13.382;2023-07-02T07:13:04;21.40;99.90
52321;DHT22;38261;54.090;13.382;2023-07-02T07:14:26;21.60;99.90
52321;DHT22;38261;54.090;13.382;2023-07-02T07:15:48;21.50;99.90
52321;DHT22;38261;54.090;13.382;2023-07-02T07:17:10;21.30;99.90
52321;DHT22;38261;54.090;13.382;2023-07-02T07:18:33;20.90;99.90
52321;DHT22;38261;54.090;13.382;2023-07-02T07:19:55;20.60;99.90
52321;DHT22;38261;54.090;13.382;2023-07-02T07:21:17;20.30;99.90
52321;DHT22;38261;54.090;13.382;2023-07-02T07:22:39;20.00;99.90
52321;DHT22;38261;54.090;13.382;2023-07-02T07:24:01;19.80;99.90
52321;DHT22;38261;54.090;13.382;2023-07-02T07:25:24;19.80;99.90
52321;DHT22;38261;54.090;13.382;2023-07-02T07:26:46;19.90;99.90
52321;DHT22;38261;54.090;13.382;2023-07-02T07:28:08;20.00;99.90
52321;DHT22;38261;54.090;13.382;2023-07-02T07:29:37;20.00;99.90
52321;DHT22;38261;54.090;13.382;2023-07-02T07:30:59;20.00;99.90
52321;DHT22;38261;54.090;13.382;2023-07-02T07:32:21;20.10;99.90
52321;DHT22;38261;54.090;13.382;2023-07-02T07:33:43;20.30;99.90
52321;DHT22;38261;54.090;13.382;2023-07-02T07:35:06;20.50;99.90
52321;DHT22;38261;54.090;13.382;2023-07-02T07:36:28;20.80;99.90
52321;DHT22;38261;54.090;13.382;2023-07-02T07:37:50;20.90;99.90
52321;DHT22;38261;54.090;13.382;2023-07-02T07:39:13;20.90;99.90
52321;DHT22;38261;54.090;13.382;2023-07-02T07:40:35;21.00;99.90
52321;DHT22;38261;54.090;13.382;2023-07-02T07:41:57;20.90;99.90
52321;DHT22;38261;54.090;13.382;2023-07-02T07:43:19;20.90;99.90
52321;DHT22;38261;54.090;13.382;2023-07-02T07:44:42;21.00;99.90
52321;DHT22;38261;54.090;13.382;2023-07-02T07:46:04;21.00;99.90
52321;DHT22;38261;54.090;13.382;2023-07-02T07:47:26;20.80;99.90
52321;DHT22;38261;54.090;13.382;2023-07-02T07:48:49;20.60;99.90
52321;DHT22;38261;54.090;13.382;2023-07-02T07:50:11;20.50;99.90
52321;DHT22;38261;54.090;13.382;2023-07-02T07:51:33;20.50;99.90
52321;DHT22;38261;54.090;13.382;2023-07-02T07:52:58;20.50;99.90
52321;DHT22;38261;54.090;13.382;2023-07-02T07:54:20;20.50;99.90
52321;DHT22;38261;54.090;13.382;2023-07-02T07:55:43;20.50;99.90
52321;DHT22;38261;54.090;13.382;2023-07-02T07:57:06;20.50;99.90
52321;DHT22;38261;54.090;13.382;2023-07-02T07:58:28;20.40;99.90
52321;DHT22;38261;54.090;13.382;2023-07-02T07:59:50;20.40;99.90
52321;DHT22;38261;54.090;13.382;2023-07-02T08:01:12;20.30;99.90
52321;DHT22;38261;54.090;13.382;2023-07-02T08:02:34;20.20;99.90
52321;DHT22;38261;54.090;13.382;2023-07-02T08:03:56;20.30;99.90
52321;DHT22;38261;54.090;13.382;2023-07-02T08:05:19;20.40;99.90
52321;DHT22;38261;54.090;13.382;2023-07-02T08:06:41;20.50;99.90
52321;DHT22;38261;54.090;13.382;2023-07-02T08:08:06;20.70;99.90
52321;DHT22;38261;54.090;13.382;2023-07-02T08:09:30;20.70;99.90
52321;DHT22;38261;54.090;13.382;2023-07-02T08:10:52;20.70;99.90
52321;DHT22;38261;54.090;13.382;2023-07-02T08:12:14;20.80;99.90
52321;DHT22;38261;54.090;13.382;2023-07-02T08:13:36;20.70;99.90
52321;DHT22;38261;54.090;13.382;2023-07-02T08:14:59;20.60;99.90
52321;DHT22;38261;54.090;13.382;2023-07-02T08:16:21;20.60;99.90
52321;DHT22;38261;54.090;13.382;2023-07-02T08:17:43;20.60;99.90
52321;DHT22;38261;54.090;13.382;2023-07-02T08:19:05;20.60;99.90
52321;DHT22;38261;54.090;13.382;2023-07-02T08:20:28;20.60;99.90
52321;DHT22;38261;54.090;13.382;2023-07-02T08:21:50;20.70;99.90
52321;DHT22;38261;54.090;13.382;2023-07-02T08:23:12;20.80;99.90
52321;DHT22;38261;54.090;13.382;2023-07-02T08:24:34;20.80;99.90
52321;DHT22;38261;54.090;13.382;2023-07-02T08:25:56;20.80;99.90
52321;DHT22;38261;54.090;13.382;2023-07-02T08:27:18;20.80;99.90
52321;DHT22;38261;54.090;13.382;2023-07-02T08:28:45;20.70;99.90
52321;DHT22;38261;54.090;13.382;2023-07-02T08:30:07;20.60;99.90
52321;DHT22;38261;54.090;13.382;2023-07-02T08:31:29;20.60;99.90
52321;DHT22;38261;54.090;13.382;2023-07-02T08:32:51;20.70;99.90
52321;DHT22;38261;54.090;13.382;2023-07-02T08:34:16;20.70;99.90